createdAt,value
2017-02-03T00:00:52.669Z,5.54
2017-02-03T00:02:01.383Z,5.43
2017-02-03T00:03:10.080Z,5.43
2017-02-03T00:04:19.161Z,5.37
2017-02-03T00:05:28.263Z,5.41
2017-02-03T00:06:37.360Z,5.43
2017-02-03T00:07:46.045Z,5.44
2017-02-03T00:08:54.747Z,5.37
2017-02-03T00:10:03.449Z,5.37
2017-02-03T00:11:12.140Z,5.4
2017-02-03T00:12:20.838Z,5.43
2017-02-03T00:13:29.551Z,5.38
2017-02-03T00:14:38.231Z,5.4
2017-02-03T00:15:46.925Z,5.36
2017-02-03T00:16:55.997Z,5.29
2017-02-03T00:18:05.500Z,5.28
2017-02-03T00:19:14.210Z,5.33
2017-02-03T00:20:22.888Z,5.29
2017-02-03T00:21:32.380Z,5.28
2017-02-03T00:22:41.085Z,5.29
2017-02-03T00:23:49.776Z,5.33
2017-02-03T00:24:58.863Z,5.29
2017-02-03T00:26:08.373Z,5.2
2017-02-03T00:27:17.063Z,5.18
2017-02-03T00:28:26.143Z,5.23
2017-02-03T00:29:34.847Z,5.18
2017-02-03T00:30:43.928Z,5.19
2017-02-03T00:31:52.633Z,5.19
2017-02-03T00:33:01.325Z,5.19
2017-02-03T00:34:10.025Z,5.19
2017-02-03T00:35:18.740Z,5.19
2017-02-03T00:36:27.424Z,5.15
2017-02-03T00:37:36.114Z,5.19
2017-02-03T00:38:44.812Z,5.13
2017-02-03T00:39:53.510Z,5.26
2017-02-03T00:41:02.189Z,5.33
2017-02-03T00:42:10.905Z,5.16
2017-02-03T00:43:19.998Z,5.26
2017-02-03T00:44:28.676Z,5.18
2017-02-03T00:45:37.382Z,5.23
2017-02-03T00:46:46.077Z,5.16
2017-02-03T00:47:54.760Z,5.18
2017-02-03T00:49:03.849Z,5.25
2017-02-03T00:50:12.552Z,5.23
2017-02-03T00:51:22.027Z,5.2
2017-02-03T00:52:31.121Z,5.19
2017-02-03T00:53:40.214Z,5.18
2017-02-03T00:54:48.906Z,5.19
2017-02-03T00:55:58.416Z,5.16
2017-02-03T00:57:07.126Z,5.2
2017-02-03T00:58:15.853Z,5.13
2017-02-03T00:59:24.943Z,5.13
2017-02-03T01:00:33.636Z,5.25
2017-02-03T01:01:42.362Z,5.19
2017-02-03T01:02:51.076Z,5.31
2017-02-03T01:04:00.159Z,5.4
2017-02-03T01:05:08.852Z,5.36
2017-02-03T01:06:17.554Z,5.36
2017-02-03T01:07:26.242Z,5.41
2017-02-03T01:08:35.327Z,5.4
2017-02-03T01:09:44.032Z,5.44
2017-02-03T01:10:53.131Z,5.38
2017-02-03T01:12:01.809Z,5.37
2017-02-03T01:13:10.512Z,5.38
2017-02-03T01:14:19.215Z,5.37
2017-02-03T01:15:27.926Z,5.37
2017-02-03T01:16:36.623Z,5.4
2017-02-03T01:17:45.310Z,5.34
2017-02-03T01:18:54.415Z,5.34
2017-02-03T01:20:03.540Z,5.34
2017-02-03T01:21:12.275Z,5.4
2017-02-03T01:22:20.977Z,5.33
2017-02-03T01:23:30.465Z,5.41
2017-02-03T01:24:39.154Z,5.36
2017-02-03T01:25:47.853Z,5.34
2017-02-03T01:26:56.959Z,5.38
2017-02-03T01:28:05.644Z,5.37
2017-02-03T01:29:14.336Z,5.28
2017-02-03T01:30:23.421Z,5.37
2017-02-03T01:31:32.121Z,5.33
2017-02-03T01:32:41.222Z,5.37
2017-02-03T01:33:49.912Z,5.33
2017-02-03T01:34:58.609Z,5.31
2017-02-03T01:36:07.307Z,5.28
2017-02-03T01:37:15.997Z,5.19
2017-02-03T01:38:24.693Z,5.19
2017-02-03T01:39:33.404Z,5.26
2017-02-03T01:40:42.080Z,5.28
2017-02-03T01:41:50.765Z,5.22
2017-02-03T01:42:59.471Z,5.2
2017-02-03T01:44:08.170Z,5.25
2017-02-03T01:45:16.870Z,5.22
2017-02-03T01:46:25.553Z,5.16
2017-02-03T01:47:34.247Z,5.22
2017-02-03T01:48:42.962Z,5.23
2017-02-03T01:49:51.647Z,5.15
2017-02-03T01:51:00.338Z,5.22
2017-02-03T01:52:09.447Z,5.2
2017-02-03T01:53:18.147Z,5.12
2017-02-03T01:54:26.831Z,5.16
2017-02-03T01:55:35.931Z,5.12
2017-02-03T01:56:44.663Z,5.16
2017-02-03T01:57:53.358Z,5.1
2017-02-03T01:59:02.063Z,5.08
2017-02-03T02:00:11.145Z,5.08
2017-02-03T02:01:19.847Z,5.15
2017-02-03T02:02:28.930Z,5.13
2017-02-03T02:03:37.612Z,5.12
2017-02-03T02:04:46.716Z,5.13
2017-02-03T02:05:55.808Z,5.13
2017-02-03T02:07:04.495Z,5.2
2017-02-03T02:08:13.195Z,5.13
2017-02-03T02:09:21.895Z,5.15
2017-02-03T02:10:30.570Z,5.16
2017-02-03T02:11:39.659Z,5.2
2017-02-03T02:12:48.351Z,5.18
2017-02-03T02:13:57.053Z,5.2
2017-02-03T02:15:06.138Z,5.16
2017-02-03T02:16:15.226Z,5.31
2017-02-03T02:17:23.926Z,5.2
2017-02-03T02:18:33.035Z,5.25
2017-02-03T02:19:42.106Z,5.28
2017-02-03T02:20:50.809Z,5.31
2017-02-03T02:21:59.518Z,5.33
2017-02-03T02:23:08.204Z,5.34
2017-02-03T02:24:17.676Z,5.37
2017-02-03T02:25:26.388Z,5.37
2017-02-03T02:26:35.074Z,5.37
2017-02-03T02:27:43.772Z,5.38
2017-02-03T02:28:52.459Z,5.36
2017-02-03T02:30:01.555Z,5.43
2017-02-03T02:31:10.261Z,5.37
2017-02-03T02:32:19.736Z,5.41
2017-02-03T02:33:28.823Z,5.37
2017-02-03T02:34:37.534Z,5.37
2017-02-03T02:35:47.415Z,5.46
2017-02-03T02:36:56.097Z,5.49
2017-02-03T02:38:04.797Z,5.43
2017-02-03T02:39:13.879Z,5.4
2017-02-03T02:40:22.955Z,5.44
2017-02-03T02:41:31.658Z,5.44
2017-02-03T02:42:40.357Z,5.44
2017-02-03T02:43:49.448Z,5.49
2017-02-03T02:44:58.577Z,5.47
2017-02-03T02:46:07.279Z,5.46
2017-02-03T02:47:16.349Z,5.38
2017-02-03T02:48:25.048Z,5.44
2017-02-03T02:49:33.755Z,5.49
2017-02-03T02:50:42.466Z,5.44
2017-02-03T02:51:52.341Z,5.4
2017-02-03T02:53:01.055Z,5.44
2017-02-03T02:54:09.743Z,5.46
2017-02-03T02:55:18.824Z,5.46
2017-02-03T02:56:27.519Z,5.46
2017-02-03T02:57:36.211Z,5.38
2017-02-03T02:58:44.947Z,5.51
2017-02-03T02:59:54.028Z,5.41
2017-02-03T03:01:02.723Z,5.47
2017-02-03T03:02:11.433Z,5.52
2017-02-03T03:03:20.906Z,5.51
2017-02-03T03:04:29.992Z,5.49
2017-02-03T03:05:38.690Z,5.55
2017-02-03T03:06:47.787Z,5.52
2017-02-03T03:07:56.858Z,5.49
2017-02-03T03:09:06.357Z,5.44
2017-02-03T03:10:15.447Z,5.54
2017-02-03T03:11:24.181Z,5.49
2017-02-03T03:12:32.870Z,5.54
2017-02-03T03:13:41.575Z,5.4
2017-02-03T03:14:50.673Z,5.41
2017-02-03T03:16:00.160Z,5.41
2017-02-03T03:17:08.838Z,5.41
2017-02-03T03:18:17.547Z,5.49
2017-02-03T03:19:26.243Z,5.46
2017-02-03T03:20:34.922Z,5.47
2017-02-03T03:21:43.622Z,5.44
2017-02-03T03:22:52.730Z,5.51
2017-02-03T03:24:01.817Z,5.43
2017-02-03T03:25:10.520Z,5.46
2017-02-03T03:26:19.609Z,5.47
2017-02-03T03:27:28.716Z,5.47
2017-02-03T03:28:37.809Z,5.43
2017-02-03T03:29:46.888Z,5.43
2017-02-03T03:30:55.589Z,5.41
2017-02-03T03:32:04.295Z,5.47
2017-02-03T03:33:13.366Z,5.51
2017-02-03T03:34:22.460Z,5.55
2017-02-03T03:35:31.163Z,5.55
2017-02-03T03:36:40.235Z,5.58
2017-02-03T03:37:49.320Z,5.58
2017-02-03T03:38:58.022Z,5.59
2017-02-03T03:40:06.703Z,5.54
2017-02-03T03:41:15.398Z,5.55
2017-02-03T03:42:24.075Z,5.64
2017-02-03T03:43:32.770Z,5.65
2017-02-03T03:44:41.508Z,5.64
2017-02-03T03:45:50.586Z,5.67
2017-02-03T03:46:59.283Z,5.69
2017-02-03T03:48:08.018Z,5.67
2017-02-03T03:49:17.099Z,5.77
2017-02-03T03:50:25.780Z,5.73
2017-02-03T03:51:34.486Z,5.73
2017-02-03T03:52:43.187Z,5.77
2017-02-03T03:53:52.268Z,5.76
2017-02-03T03:55:00.963Z,5.74
2017-02-03T03:56:10.051Z,5.76
2017-02-03T03:57:19.153Z,5.8
2017-02-03T03:58:28.234Z,5.8
2017-02-03T03:59:36.927Z,5.76
2017-02-03T04:00:45.629Z,5.81
2017-02-03T04:01:54.714Z,5.79
2017-02-03T04:03:03.387Z,5.87
2017-02-03T04:04:12.095Z,5.76
2017-02-03T04:05:20.790Z,5.87
2017-02-03T04:06:29.482Z,5.87
2017-02-03T04:07:38.570Z,5.84
2017-02-03T04:08:47.270Z,5.74
2017-02-03T04:09:55.968Z,5.81
2017-02-03T04:11:04.664Z,5.74
2017-02-03T04:12:13.349Z,5.79
2017-02-03T04:13:22.841Z,5.76
2017-02-03T04:14:31.540Z,5.7
2017-02-03T04:15:40.231Z,5.79
2017-02-03T04:16:48.935Z,5.76
2017-02-03T04:17:57.640Z,5.8
2017-02-03T04:19:06.712Z,5.73
2017-02-03T04:20:15.407Z,5.76
2017-02-03T04:21:24.508Z,5.73
2017-02-03T04:22:33.591Z,5.72
2017-02-03T04:23:42.293Z,5.67
2017-02-03T04:24:51.132Z,5.67
2017-02-03T04:25:59.833Z,5.67
2017-02-03T04:27:08.940Z,5.69
2017-02-03T04:28:18.016Z,5.67
2017-02-03T04:29:26.715Z,5.72
2017-02-03T04:30:35.427Z,5.67
2017-02-03T04:31:44.507Z,5.64
2017-02-03T04:32:53.203Z,5.73
2017-02-03T04:34:02.309Z,5.67
2017-02-03T04:35:10.998Z,5.69
2017-02-03T04:36:19.684Z,5.67
2017-02-03T04:37:29.178Z,5.65
2017-02-03T04:38:37.870Z,5.64
2017-02-03T04:39:46.953Z,5.67
2017-02-03T04:40:55.656Z,5.69
2017-02-03T04:42:04.345Z,5.67
2017-02-03T04:43:13.039Z,5.67
2017-02-03T04:44:22.145Z,5.62
2017-02-03T04:45:30.838Z,5.67
2017-02-03T04:46:39.908Z,5.72
2017-02-03T04:47:48.603Z,5.64
2017-02-03T04:48:57.319Z,5.59
2017-02-03T04:50:06.399Z,5.59
2017-02-03T04:51:15.479Z,5.69
2017-02-03T04:52:24.974Z,5.65
2017-02-03T04:53:33.666Z,5.65
2017-02-03T04:54:42.367Z,5.67
2017-02-03T04:55:51.060Z,5.69
2017-02-03T04:56:59.770Z,5.67
2017-02-03T04:58:08.875Z,5.64
2017-02-03T04:59:18.346Z,5.65
2017-02-03T05:00:27.053Z,5.62
2017-02-03T05:01:36.163Z,5.62
2017-02-03T05:02:44.845Z,5.67
2017-02-03T05:03:53.527Z,5.77
2017-02-03T05:05:02.629Z,5.7
2017-02-03T05:06:11.324Z,5.79
2017-02-03T05:07:20.012Z,5.81
2017-02-03T05:08:29.097Z,5.76
2017-02-03T05:09:37.779Z,5.77
2017-02-03T05:10:46.484Z,5.73
2017-02-03T05:11:55.168Z,5.79
2017-02-03T05:13:03.848Z,5.72
2017-02-03T05:14:12.550Z,5.77
2017-02-03T05:15:21.248Z,5.77
2017-02-03T05:16:29.922Z,5.81
2017-02-03T05:17:39.034Z,5.79
2017-02-03T05:18:47.739Z,5.79
2017-02-03T05:19:56.819Z,5.81
2017-02-03T05:21:05.522Z,5.94
2017-02-03T05:22:14.615Z,5.83
2017-02-03T05:23:23.709Z,5.91
2017-02-03T05:24:32.405Z,5.84
2017-02-03T05:25:41.473Z,5.84
2017-02-03T05:26:50.188Z,5.83
2017-02-03T05:27:58.885Z,5.95
2017-02-03T05:29:07.961Z,6.01
2017-02-03T05:30:16.665Z,5.97
2017-02-03T05:31:25.371Z,5.97
2017-02-03T05:32:34.049Z,5.98
2017-02-03T05:33:42.745Z,5.99
2017-02-03T05:34:51.449Z,6.05
2017-02-03T05:36:00.139Z,6.06
2017-02-03T05:37:09.230Z,6.12
2017-02-03T05:38:17.910Z,6.15
2017-02-03T05:39:26.622Z,6.09
2017-02-03T05:40:35.328Z,6.12
2017-02-03T05:41:44.010Z,6.16
2017-02-03T05:42:53.095Z,6.16
2017-02-03T05:44:02.197Z,6.1
2017-02-03T05:45:10.893Z,6.26
2017-02-03T05:46:19.980Z,6.26
2017-02-03T05:47:28.689Z,6.17
2017-02-03T05:48:37.365Z,6.26
2017-02-03T05:49:46.058Z,6.25
2017-02-03T05:50:55.162Z,6.34
2017-02-03T05:52:04.642Z,6.28
2017-02-03T05:53:13.740Z,6.32
2017-02-03T05:54:22.816Z,6.34
2017-02-03T05:55:31.507Z,6.35
2017-02-03T05:56:40.607Z,6.38
2017-02-03T05:57:49.298Z,6.38
2017-02-03T05:58:57.999Z,6.35
2017-02-03T06:00:07.109Z,6.41
2017-02-03T06:01:15.800Z,6.43
2017-02-03T06:02:24.477Z,6.44
2017-02-03T06:03:33.193Z,6.35
2017-02-03T06:04:42.741Z,6.43
2017-02-03T06:05:51.827Z,6.41
2017-02-03T06:07:00.931Z,6.5
2017-02-03T06:08:09.614Z,6.38
2017-02-03T06:09:18.327Z,6.47
2017-02-03T06:10:27.416Z,6.52
2017-02-03T06:11:36.496Z,6.46
2017-02-03T06:12:45.600Z,6.52
2017-02-03T06:13:54.296Z,6.52
2017-02-03T06:15:02.981Z,6.49
2017-02-03T06:16:12.080Z,6.56
2017-02-03T06:17:21.180Z,6.53
2017-02-03T06:18:29.858Z,6.56
2017-02-03T06:19:38.561Z,6.54
2017-02-03T06:20:47.672Z,6.68
2017-02-03T06:21:56.368Z,6.64
2017-02-03T06:23:05.468Z,6.62
2017-02-03T06:24:14.534Z,6.7
2017-02-03T06:25:23.236Z,6.67
2017-02-03T06:26:31.931Z,6.71
2017-02-03T06:27:41.037Z,6.65
2017-02-03T06:28:50.136Z,6.74
2017-02-03T06:29:58.842Z,6.75
2017-02-03T06:31:07.526Z,6.71
2017-02-03T06:32:16.219Z,6.72
2017-02-03T06:33:24.932Z,6.82
2017-02-03T06:34:34.021Z,6.72
2017-02-03T06:35:42.718Z,6.83
2017-02-03T06:36:51.436Z,6.82
2017-02-03T06:38:00.124Z,6.8
2017-02-03T06:39:08.803Z,6.77
2017-02-03T06:40:17.516Z,6.75
2017-02-03T06:41:26.210Z,6.8
2017-02-03T06:42:35.296Z,6.95
2017-02-03T06:43:44.394Z,6.9
2017-02-03T06:44:53.492Z,6.87
2017-02-03T06:46:02.192Z,6.89
2017-02-03T06:47:10.890Z,6.9
2017-02-03T06:48:19.592Z,6.86
2017-02-03T06:49:28.313Z,6.97
2017-02-03T06:50:37.407Z,6.92
2017-02-03T06:51:46.494Z,6.87
2017-02-03T06:52:55.197Z,6.89
2017-02-03T06:54:03.903Z,6.86
2017-02-03T06:55:12.980Z,6.95
2017-02-03T06:56:21.675Z,6.96
2017-02-03T06:57:30.381Z,6.9
2017-02-03T06:58:39.855Z,6.92
2017-02-03T06:59:48.542Z,6.9
2017-02-03T07:00:57.247Z,6.93
2017-02-03T07:02:05.941Z,7.05
2017-02-03T07:03:14.628Z,7.04
2017-02-03T07:04:23.332Z,7
2017-02-03T07:05:32.020Z,7.03
2017-02-03T07:06:40.739Z,7
2017-02-03T07:07:49.812Z,7.01
2017-02-03T07:08:58.504Z,7.05
2017-02-03T07:10:07.608Z,7.04
2017-02-03T07:11:16.328Z,7.08
2017-02-03T07:12:25.019Z,7.01
2017-02-03T07:13:34.126Z,7.05
2017-02-03T07:14:42.812Z,7.05
2017-02-03T07:15:51.499Z,7.05
2017-02-03T07:17:00.199Z,7.11
2017-02-03T07:18:08.891Z,7.04
2017-02-03T07:19:17.583Z,7.1
2017-02-03T07:20:26.682Z,7.07
2017-02-03T07:21:35.366Z,7.1
2017-02-03T07:22:44.076Z,7.08
2017-02-03T07:23:52.810Z,7.1
2017-02-03T07:25:02.678Z,7.13
2017-02-03T07:26:11.382Z,7.21
2017-02-03T07:27:20.074Z,7.21
2017-02-03T07:28:29.162Z,7.14
2017-02-03T07:29:37.877Z,7.21
2017-02-03T07:30:46.985Z,7.14
2017-02-03T07:31:55.668Z,7.14
2017-02-03T07:33:04.369Z,7.21
2017-02-03T07:34:13.070Z,7.25
2017-02-03T07:35:22.145Z,7.15
2017-02-03T07:36:31.236Z,7.18
2017-02-03T07:37:40.314Z,7.18
2017-02-03T07:38:49.013Z,7.22
2017-02-03T07:39:57.715Z,7.22
2017-02-03T07:41:06.397Z,7.31
2017-02-03T07:42:15.093Z,7.22
2017-02-03T07:43:23.791Z,7.31
2017-02-03T07:44:32.487Z,7.29
2017-02-03T07:45:41.580Z,7.23
2017-02-03T07:46:50.290Z,7.22
2017-02-03T07:47:58.973Z,7.25
2017-02-03T07:49:07.664Z,7.23
2017-02-03T07:50:16.765Z,7.26
2017-02-03T07:51:25.464Z,7.33
2017-02-03T07:52:34.171Z,7.29
2017-02-03T07:53:43.640Z,7.32
2017-02-03T07:54:52.330Z,7.32
2017-02-03T07:56:01.035Z,7.39
2017-02-03T07:57:09.735Z,7.46
2017-02-03T07:58:18.818Z,7.46
2017-02-03T07:59:27.919Z,7.47
2017-02-03T08:00:37.010Z,7.46
2017-02-03T08:01:45.700Z,7.44
2017-02-03T08:02:55.207Z,7.59
2017-02-03T08:04:03.912Z,7.55
2017-02-03T08:05:12.607Z,7.53
2017-02-03T08:06:22.092Z,7.55
2017-02-03T08:07:31.581Z,7.58
2017-02-03T08:08:40.291Z,7.62
2017-02-03T08:09:49.369Z,7.64
2017-02-03T08:10:58.053Z,7.62
2017-02-03T08:12:06.760Z,7.62
2017-02-03T08:13:15.853Z,7.74
2017-02-03T08:14:24.568Z,7.8
2017-02-03T08:15:33.272Z,7.74
2017-02-03T08:16:41.983Z,7.72
2017-02-03T08:17:50.669Z,7.8
2017-02-03T08:18:59.370Z,7.75
2017-02-03T08:20:08.473Z,7.81
2017-02-03T08:21:17.184Z,7.74
2017-02-03T08:22:25.882Z,7.81
2017-02-03T08:23:34.966Z,7.84
2017-02-03T08:24:43.670Z,7.93
2017-02-03T08:25:52.373Z,7.85
2017-02-03T08:27:01.067Z,7.93
2017-02-03T08:28:09.771Z,7.88
2017-02-03T08:29:18.871Z,7.87
2017-02-03T08:30:27.960Z,7.87
2017-02-03T08:31:36.653Z,7.99
2017-02-03T08:32:45.377Z,7.9
2017-02-03T08:33:54.064Z,7.91
2017-02-03T08:35:03.150Z,7.95
2017-02-03T08:36:11.859Z,7.98
2017-02-03T08:37:20.549Z,8.01
2017-02-03T08:38:29.629Z,8.01
2017-02-03T08:39:38.750Z,8.03
2017-02-03T08:40:47.447Z,8.08
2017-02-03T08:41:56.142Z,8.06
2017-02-03T08:43:05.236Z,8.05
2017-02-03T08:44:14.333Z,8.14
2017-02-03T08:45:23.807Z,8.09
2017-02-03T08:46:32.907Z,8.11
2017-02-03T08:47:42.048Z,8.23
2017-02-03T08:48:51.162Z,8.2
2017-02-03T08:49:59.860Z,8.2
2017-02-03T08:51:08.942Z,8.31
2017-02-03T08:52:18.052Z,8.18
2017-02-03T08:53:26.759Z,8.26
2017-02-03T08:54:35.829Z,8.27
2017-02-03T08:55:44.527Z,8.32
2017-02-03T08:56:53.233Z,8.35
2017-02-03T08:58:01.923Z,8.36
2017-02-03T08:59:10.623Z,8.39
2017-02-03T09:00:19.341Z,8.42
2017-02-03T09:01:28.035Z,8.45
2017-02-03T09:02:36.725Z,8.42
2017-02-03T09:03:45.427Z,8.39
2017-02-03T09:04:54.128Z,8.49
2017-02-03T09:06:03.239Z,8.52
2017-02-03T09:07:12.712Z,8.53
2017-02-03T09:08:21.817Z,8.56
2017-02-03T09:09:30.565Z,8.56
2017-02-03T09:10:39.654Z,8.57
2017-02-03T09:11:49.137Z,8.63
2017-02-03T09:12:57.844Z,8.66
2017-02-03T09:14:06.573Z,8.71
2017-02-03T09:15:15.651Z,8.75
2017-02-03T09:16:24.373Z,8.84
2017-02-03T09:17:33.480Z,8.78
2017-02-03T09:18:42.180Z,8.87
2017-02-03T09:19:51.267Z,8.99
2017-02-03T09:20:59.965Z,9
2017-02-03T09:22:08.667Z,9.02
2017-02-03T09:23:17.759Z,9.13
2017-02-03T09:24:26.856Z,9.08
2017-02-03T09:25:35.570Z,9.15
2017-02-03T09:26:44.262Z,9.19
2017-02-03T09:27:52.952Z,9.16
2017-02-03T09:29:01.658Z,9.27
2017-02-03T09:30:10.368Z,9.26
2017-02-03T09:31:19.054Z,9.39
2017-02-03T09:32:27.755Z,9.33
2017-02-03T09:33:36.469Z,9.4
2017-02-03T09:34:45.183Z,9.39
2017-02-03T09:35:53.886Z,9.47
2017-02-03T09:37:02.990Z,9.49
2017-02-03T09:38:11.682Z,9.49
2017-02-03T09:39:20.381Z,9.47
2017-02-03T09:40:29.508Z,9.51
2017-02-03T09:41:38.198Z,9.52
2017-02-03T09:42:46.892Z,9.63
2017-02-03T09:43:55.603Z,9.7
2017-02-03T09:45:04.324Z,9.63
2017-02-03T09:46:13.397Z,9.72
2017-02-03T09:47:22.894Z,9.73
2017-02-03T09:48:31.980Z,9.73
2017-02-03T09:49:40.722Z,9.82
2017-02-03T09:50:49.417Z,9.82
2017-02-03T09:51:58.116Z,9.87
2017-02-03T09:53:06.835Z,9.91
2017-02-03T09:54:15.539Z,9.85
2017-02-03T09:55:24.224Z,9.95
2017-02-03T09:56:32.965Z,9.91
2017-02-03T09:57:42.061Z,9.99
2017-02-03T09:58:50.751Z,10.02
2017-02-03T09:59:59.453Z,9.94
2017-02-03T10:01:08.173Z,10.02
2017-02-03T10:02:16.856Z,10.03
2017-02-03T10:03:25.557Z,9.97
2017-02-03T10:04:34.246Z,10.03
2017-02-03T10:05:43.356Z,10.03
2017-02-03T10:06:52.064Z,10.02
2017-02-03T10:08:00.765Z,10.06
2017-02-03T10:09:09.470Z,10.03
2017-02-03T10:10:18.185Z,10.13
2017-02-03T10:11:26.881Z,10.15
2017-02-03T10:12:35.581Z,10.07
2017-02-03T10:13:44.294Z,10.18
2017-02-03T10:14:53.374Z,10.21
2017-02-03T10:16:02.353Z,10.21
2017-02-03T10:17:11.282Z,10.28
2017-02-03T10:18:19.977Z,10.2
2017-02-03T10:19:28.692Z,10.24
2017-02-03T10:20:37.781Z,10.21
2017-02-03T10:21:46.871Z,10.28
2017-02-03T10:22:55.585Z,10.3
2017-02-03T10:24:04.668Z,10.31
2017-02-03T10:25:13.366Z,10.33
2017-02-03T10:26:22.103Z,10.31
2017-02-03T10:27:30.807Z,10.36
2017-02-03T10:28:39.494Z,10.38
2017-02-03T10:29:48.611Z,10.39
2017-02-03T10:30:57.313Z,10.41
2017-02-03T10:32:06.001Z,10.46
2017-02-03T10:33:15.099Z,10.48
2017-02-03T10:34:24.197Z,10.61
2017-02-03T10:35:33.278Z,10.53
2017-02-03T10:36:41.976Z,10.57
2017-02-03T10:37:50.688Z,10.68
2017-02-03T10:38:59.771Z,10.62
2017-02-03T10:40:08.876Z,10.59
2017-02-03T10:41:17.580Z,10.71
2017-02-03T10:42:26.297Z,10.61
2017-02-03T10:43:34.994Z,10.65
2017-02-03T10:44:43.709Z,10.71
2017-02-03T10:45:52.808Z,10.75
2017-02-03T10:47:01.519Z,10.69
2017-02-03T10:48:11.001Z,10.76
2017-02-03T10:49:19.693Z,10.77
2017-02-03T10:50:28.403Z,10.75
2017-02-03T10:51:37.105Z,10.79
2017-02-03T10:52:46.581Z,10.76
2017-02-03T10:53:55.295Z,10.79
2017-02-03T10:55:03.991Z,10.8
2017-02-03T10:56:12.687Z,10.94
2017-02-03T10:57:21.793Z,10.87
2017-02-03T10:58:30.497Z,10.84
2017-02-03T10:59:39.187Z,10.87
2017-02-03T11:00:47.899Z,10.83
2017-02-03T11:01:56.992Z,10.87
2017-02-03T11:03:06.131Z,10.84
2017-02-03T11:04:15.216Z,10.86
2017-02-03T11:05:23.902Z,10.9
2017-02-03T11:06:32.609Z,10.8
2017-02-03T11:07:41.702Z,10.86
2017-02-03T11:08:50.786Z,10.86
2017-02-03T11:09:59.896Z,10.89
2017-02-03T11:11:09.434Z,10.9
2017-02-03T11:12:18.118Z,10.87
2017-02-03T11:13:27.219Z,10.89
2017-02-03T11:14:35.935Z,10.9
2017-02-03T11:15:45.020Z,10.89
2017-02-03T11:16:53.862Z,10.87
2017-02-03T11:18:02.566Z,10.87
2017-02-03T11:19:11.667Z,10.94
2017-02-03T11:20:20.381Z,10.83
2017-02-03T11:21:29.084Z,10.8
2017-02-03T11:22:37.783Z,10.9
2017-02-03T11:23:46.487Z,10.92
2017-02-03T11:24:55.176Z,10.87
2017-02-03T11:26:04.266Z,10.94
2017-02-03T11:27:13.383Z,10.92
2017-02-03T11:28:22.065Z,10.94
2017-02-03T11:29:30.753Z,10.89
2017-02-03T11:30:39.466Z,10.98
2017-02-03T11:31:48.557Z,10.98
2017-02-03T11:32:57.270Z,10.98
2017-02-03T11:34:06.350Z,11.01
2017-02-03T11:35:15.062Z,10.94
2017-02-03T11:36:23.762Z,10.98
2017-02-03T11:37:32.450Z,11.01
2017-02-03T11:38:41.205Z,10.98
2017-02-03T11:39:49.916Z,11.04
2017-02-03T11:40:58.615Z,11.08
2017-02-03T11:42:07.304Z,11.01
2017-02-03T11:43:16.416Z,11.01
2017-02-03T11:44:25.109Z,11.01
2017-02-03T11:45:33.818Z,11
2017-02-03T11:46:42.514Z,11.07
2017-02-03T11:47:51.594Z,11
2017-02-03T11:49:00.306Z,11.08
2017-02-03T11:50:09.002Z,11.05
2017-02-03T11:51:17.695Z,11.05
2017-02-03T11:52:26.405Z,11.05
2017-02-03T11:53:35.104Z,11.15
2017-02-03T11:54:43.787Z,11.12
2017-02-03T11:55:52.487Z,11.1
2017-02-03T11:57:01.600Z,11.19
2017-02-03T11:58:10.684Z,11.18
2017-02-03T11:59:19.412Z,11.26
2017-02-03T12:00:28.512Z,11.19
2017-02-03T12:01:37.622Z,11.27
2017-02-03T12:02:46.326Z,11.27
2017-02-03T12:03:55.804Z,11.3
2017-02-03T12:05:04.542Z,11.3
2017-02-03T12:06:13.635Z,11.33
2017-02-03T12:07:22.719Z,11.35
2017-02-03T12:08:31.414Z,11.3
2017-02-03T12:09:40.524Z,11.34
2017-02-03T12:10:49.208Z,11.26
2017-02-03T12:11:57.904Z,11.26
2017-02-03T12:13:07.008Z,11.31
2017-02-03T12:14:15.704Z,11.37
2017-02-03T12:15:24.415Z,11.27
2017-02-03T12:16:33.488Z,11.34
2017-02-03T12:17:42.193Z,11.35
2017-02-03T12:18:50.899Z,11.35
2017-02-03T12:19:59.592Z,11.27
2017-02-03T12:21:08.687Z,11.31
2017-02-03T12:22:17.402Z,11.41
2017-02-03T12:23:26.509Z,11.34
2017-02-03T12:24:35.196Z,11.35
2017-02-03T12:25:43.913Z,11.33
2017-02-03T12:26:52.710Z,11.34
2017-02-03T12:28:01.432Z,11.35
2017-02-03T12:29:10.158Z,11.34
2017-02-03T12:30:18.863Z,11.34
2017-02-03T12:31:27.542Z,11.33
2017-02-03T12:32:36.248Z,11.33
2017-02-03T12:33:45.742Z,11.37
2017-02-03T12:34:54.437Z,11.34
2017-02-03T12:36:03.536Z,11.38
2017-02-03T12:37:12.243Z,11.41
2017-02-03T12:38:21.323Z,11.43
2017-02-03T12:39:30.022Z,11.3
2017-02-03T12:40:39.133Z,11.38
2017-02-03T12:41:48.216Z,11.37
2017-02-03T12:42:57.301Z,11.51
2017-02-03T12:44:06.387Z,11.56
2017-02-03T12:45:15.086Z,11.51
2017-02-03T12:46:24.210Z,11.45
2017-02-03T12:47:32.897Z,11.48
2017-02-03T12:48:41.998Z,11.53
2017-02-03T12:49:50.769Z,11.48
2017-02-03T12:50:59.611Z,11.52
2017-02-03T12:52:08.809Z,11.55
2017-02-03T12:53:18.309Z,11.56
2017-02-03T12:54:27.018Z,11.59
2017-02-03T12:55:35.705Z,11.68
2017-02-03T12:56:44.415Z,11.6
2017-02-03T12:57:53.916Z,11.59
2017-02-03T12:59:02.627Z,11.52
2017-02-03T13:00:11.709Z,11.59
2017-02-03T13:01:20.399Z,11.53
2017-02-03T13:02:29.112Z,11.56
2017-02-03T13:03:37.816Z,11.65
2017-02-03T13:04:46.909Z,11.65
2017-02-03T13:05:55.619Z,11.63
2017-02-03T13:07:04.720Z,11.67
2017-02-03T13:08:14.230Z,11.7
2017-02-03T13:09:23.329Z,11.63
2017-02-03T13:10:32.429Z,11.68
2017-02-03T13:11:41.143Z,11.7
2017-02-03T13:12:50.241Z,11.62
2017-02-03T13:13:59.323Z,11.63
2017-02-03T13:15:08.444Z,11.63
2017-02-03T13:16:17.145Z,11.67
2017-02-03T13:17:25.838Z,11.65
2017-02-03T13:18:34.550Z,11.65
2017-02-03T13:19:43.257Z,11.67
2017-02-03T13:20:51.941Z,11.73
2017-02-03T13:22:00.642Z,11.65
2017-02-03T13:23:10.151Z,11.7
2017-02-03T13:24:18.838Z,11.65
2017-02-03T13:25:27.536Z,11.67
2017-02-03T13:26:36.680Z,11.7
2017-02-03T13:27:45.773Z,11.74
2017-02-03T13:28:54.480Z,11.7
2017-02-03T13:30:03.182Z,11.71
2017-02-03T13:31:11.890Z,11.74
2017-02-03T13:32:20.604Z,11.74
2017-02-03T13:33:29.301Z,11.71
2017-02-03T13:34:37.991Z,11.74
2017-02-03T13:35:47.099Z,11.76
2017-02-03T13:36:55.790Z,11.71
2017-02-03T13:38:04.487Z,11.78
2017-02-03T13:39:13.197Z,11.71
2017-02-03T13:40:22.285Z,11.76
2017-02-03T13:41:30.982Z,11.71
2017-02-03T13:42:39.685Z,11.78
2017-02-03T13:43:48.383Z,11.73
2017-02-03T13:44:57.095Z,11.77
2017-02-03T13:46:06.190Z,11.77
2017-02-03T13:47:14.884Z,11.77
2017-02-03T13:48:23.993Z,11.74
2017-02-03T13:49:32.691Z,11.77
2017-02-03T13:50:41.410Z,11.74
2017-02-03T13:51:50.522Z,11.85
2017-02-03T13:52:59.626Z,11.77
2017-02-03T13:54:09.096Z,11.77
2017-02-03T13:55:17.806Z,11.71
2017-02-03T13:56:26.503Z,11.83
2017-02-03T13:57:35.203Z,11.83
2017-02-03T13:58:44.296Z,11.78
2017-02-03T13:59:52.980Z,11.85
2017-02-03T14:01:01.691Z,11.88
2017-02-03T14:02:10.395Z,11.8
2017-02-03T14:03:19.091Z,11.93
2017-02-03T14:04:28.226Z,11.83
2017-02-03T14:05:37.741Z,11.93
2017-02-03T14:06:46.426Z,11.95
2017-02-03T14:07:55.131Z,11.95
2017-02-03T14:09:03.835Z,12.02
2017-02-03T14:10:12.534Z,12.08
2017-02-03T14:11:21.250Z,12.12
2017-02-03T14:12:29.947Z,12.05
2017-02-03T14:13:38.650Z,12.12
2017-02-03T14:14:47.391Z,12.17
2017-02-03T14:15:56.085Z,12.17
2017-02-03T14:17:04.779Z,12.21
2017-02-03T14:18:13.491Z,12.15
2017-02-03T14:19:22.574Z,12.17
2017-02-03T14:20:31.271Z,12.29
2017-02-03T14:21:39.992Z,12.33
2017-02-03T14:22:48.684Z,12.37
2017-02-03T14:23:57.775Z,12.4
2017-02-03T14:25:06.481Z,12.48
2017-02-03T14:26:15.585Z,12.53
2017-02-03T14:27:24.669Z,12.5
2017-02-03T14:28:33.380Z,12.53
2017-02-03T14:29:42.484Z,12.53
2017-02-03T14:30:51.171Z,12.48
2017-02-03T14:32:00.272Z,12.55
2017-02-03T14:33:08.983Z,12.62
2017-02-03T14:34:18.057Z,12.63
2017-02-03T14:35:26.756Z,12.68
2017-02-03T14:36:35.871Z,12.57
2017-02-03T14:37:44.558Z,12.66
2017-02-03T14:38:53.652Z,12.57
2017-02-03T14:40:02.357Z,12.51
2017-02-03T14:41:11.054Z,12.63
2017-02-03T14:42:19.762Z,12.54
2017-02-03T14:43:28.841Z,12.54
2017-02-03T14:44:37.536Z,12.51
2017-02-03T14:45:46.252Z,12.44
2017-02-03T14:46:54.946Z,12.44
2017-02-03T14:48:03.646Z,12.37
2017-02-03T14:49:12.362Z,12.39
2017-02-03T14:50:21.055Z,12.23
2017-02-03T14:51:29.754Z,12.29
2017-02-03T14:52:38.875Z,12.14
2017-02-03T14:53:47.571Z,12.25
2017-02-03T14:54:56.269Z,12.2
2017-02-03T14:56:04.972Z,12.3
2017-02-03T14:57:13.669Z,12.23
2017-02-03T14:58:22.394Z,12.2
2017-02-03T14:59:31.082Z,12.25
2017-02-03T15:00:39.767Z,12.23
2017-02-03T15:01:49.277Z,12.18
2017-02-03T15:02:58.374Z,12.17
2017-02-03T15:04:07.455Z,12.18
2017-02-03T15:05:16.578Z,12.1
2017-02-03T15:06:25.677Z,12.1
2017-02-03T15:07:34.373Z,12.1
2017-02-03T15:08:43.868Z,12.02
2017-02-03T15:09:52.572Z,12